createdAt,value
2018-01-30T00:00:29.048Z,1.43
2018-01-30T00:02:56.557Z,1.47
2018-01-30T00:05:24.828Z,1.33
2018-01-30T00:07:53.126Z,1.43
2018-01-30T00:10:21.554Z,1.03
2018-01-30T00:12:49.264Z,1.70
2018-01-30T00:15:17.599Z,3.10
2018-01-30T00:17:45.124Z,1.60
2018-01-30T00:20:12.596Z,1.17
2018-01-30T00:22:40.143Z,1.27
2018-01-30T00:25:08.411Z,1.30
2018-01-30T00:27:35.938Z,1.67
2018-01-30T00:30:03.426Z,3.03
2018-01-30T00:32:31.003Z,1.10
2018-01-30T00:34:59.266Z,2.10
2018-01-30T00:37:28.286Z,2.60
2018-01-30T00:39:56.565Z,1.73
2018-01-30T00:42:24.841Z,1.80
2018-01-30T00:44:52.444Z,1.60
2018-01-30T00:47:19.972Z,1.57
2018-01-30T00:49:48.964Z,1.10
2018-01-30T00:52:17.237Z,1.00
2018-01-30T00:54:44.718Z,1.50
2018-01-30T00:57:12.242Z,2.00
2018-01-30T00:59:39.743Z,2.63
2018-01-30T01:02:08.053Z,1.40
2018-01-30T01:04:35.538Z,1.57
2018-01-30T01:07:03.024Z,1.40
2018-01-30T01:09:30.560Z,1.53
2018-01-30T01:11:58.070Z,1.40
2018-01-30T01:14:26.356Z,1.70
2018-01-30T01:16:54.638Z,1.30
2018-01-30T01:19:22.892Z,1.53
2018-01-30T01:21:50.406Z,1.23
2018-01-30T01:24:17.912Z,1.77
2018-01-30T01:26:45.429Z,1.70
2018-01-30T01:29:12.936Z,1.90
2018-01-30T01:31:40.435Z,1.83
2018-01-30T01:34:08.776Z,1.50
2018-01-30T01:36:36.288Z,1.47
2018-01-30T01:39:04.553Z,2.10
2018-01-30T01:41:32.814Z,1.73
2018-01-30T01:44:00.300Z,2.20
2018-01-30T01:46:28.773Z,1.50
2018-01-30T01:48:56.313Z,1.40
2018-01-30T01:51:23.808Z,1.20
2018-01-30T01:53:51.319Z,2.03
2018-01-30T01:56:18.825Z,1.67
2018-01-30T01:58:46.434Z,1.17
2018-01-30T02:01:14.025Z,1.27
2018-01-30T02:03:41.528Z,1.27
2018-01-30T02:06:09.800Z,1.57
2018-01-30T02:08:37.295Z,1.20
2018-01-30T02:11:04.801Z,1.20
2018-01-30T02:13:32.293Z,0.67
2018-01-30T02:16:00.489Z,1.30
2018-01-30T02:18:28.753Z,1.70
2018-01-30T02:20:57.010Z,1.60
2018-01-30T02:23:24.511Z,1.97
2018-01-30T02:25:52.754Z,1.80
2018-01-30T02:28:20.264Z,1.57
2018-01-30T02:30:47.750Z,1.50
2018-01-30T02:33:15.280Z,1.97
2018-01-30T02:35:43.527Z,1.30
2018-01-30T02:38:11.037Z,1.00
2018-01-30T02:40:38.537Z,1.37
2018-01-30T02:43:06.065Z,1.27
2018-01-30T02:45:33.659Z,1.10
2018-01-30T02:48:01.735Z,1.77
2018-01-30T02:50:29.256Z,3.83
2018-01-30T02:52:57.562Z,1.90
2018-01-30T02:55:25.051Z,1.33
2018-01-30T02:57:52.547Z,2.67
2018-01-30T03:00:24.518Z,1.73
2018-01-30T03:02:52.787Z,2.17
2018-01-30T03:05:20.292Z,1.40
2018-01-30T03:07:47.794Z,1.73
2018-01-30T03:10:15.297Z,1.17
2018-01-30T03:12:43.535Z,2.13
2018-01-30T03:15:11.144Z,2.33
2018-01-30T03:17:38.653Z,1.60
2018-01-30T03:20:06.186Z,1.53
2018-01-30T03:22:33.667Z,1.27
2018-01-30T03:25:01.293Z,1.43
2018-01-30T03:27:29.544Z,1.90
2018-01-30T03:29:57.084Z,1.00
2018-01-30T03:32:24.565Z,1.83
2018-01-30T03:34:52.071Z,1.67
2018-01-30T03:37:20.915Z,1.77
2018-01-30T03:39:48.416Z,1.60
2018-01-30T03:42:16.673Z,1.47
2018-01-30T03:44:44.194Z,1.60
2018-01-30T03:47:11.690Z,2.20
2018-01-30T03:49:39.216Z,2.10
2018-01-30T03:52:06.773Z,1.30
2018-01-30T03:54:34.282Z,2.10
2018-01-30T03:57:01.791Z,1.83
2018-01-30T03:59:30.072Z,2.07
2018-01-30T04:01:58.346Z,2.00
2018-01-30T04:04:26.645Z,1.50
2018-01-30T04:06:54.176Z,2.20
2018-01-30T04:09:22.451Z,1.83
2018-01-30T04:11:49.974Z,2.50
2018-01-30T04:14:17.494Z,1.83
2018-01-30T04:16:45.749Z,1.73
2018-01-30T04:19:13.233Z,1.77
2018-01-30T04:21:42.037Z,1.70
2018-01-30T04:24:10.300Z,2.60
2018-01-30T04:26:38.568Z,2.27
2018-01-30T04:29:06.079Z,1.70
2018-01-30T04:31:33.589Z,2.03
2018-01-30T04:34:01.113Z,2.13
2018-01-30T04:36:28.607Z,1.57
2018-01-30T04:38:56.103Z,2.50
2018-01-30T04:41:24.370Z,1.83
2018-01-30T04:43:52.639Z,1.43
2018-01-30T04:46:20.136Z,1.00
2018-01-30T04:48:48.388Z,1.80
2018-01-30T04:51:15.908Z,1.10
2018-01-30T04:53:43.408Z,1.07
2018-01-30T04:56:10.918Z,0.93
2018-01-30T04:58:38.413Z,1.40
2018-01-30T05:01:05.914Z,1.57
2018-01-30T05:03:33.406Z,1.40
2018-01-30T05:06:00.922Z,1.50
2018-01-30T05:08:28.404Z,1.20
2018-01-30T05:10:56.690Z,1.40
2018-01-30T05:13:24.933Z,2.67
2018-01-30T05:15:52.433Z,1.77
2018-01-30T05:18:20.688Z,1.53
2018-01-30T05:20:48.176Z,1.67
2018-01-30T05:23:16.446Z,1.87
2018-01-30T05:25:43.957Z,1.70
2018-01-30T05:28:11.488Z,1.17
2018-01-30T05:30:39.758Z,2.07
2018-01-30T05:33:08.005Z,1.40
2018-01-30T05:35:35.504Z,2.33
2018-01-30T05:38:03.016Z,1.40
2018-01-30T05:40:30.504Z,1.70
2018-01-30T05:42:58.038Z,1.73
2018-01-30T05:45:25.543Z,1.27
2018-01-30T05:47:53.054Z,1.60
2018-01-30T05:50:20.583Z,1.20
2018-01-30T05:52:49.095Z,1.60
2018-01-30T05:55:16.783Z,1.90
2018-01-30T05:57:45.341Z,1.77
2018-01-30T06:00:13.602Z,1.33
2018-01-30T06:02:41.100Z,1.87
2018-01-30T06:05:08.619Z,1.70
2018-01-30T06:07:36.119Z,2.20
2018-01-30T06:10:03.619Z,1.87
2018-01-30T06:12:31.132Z,2.07
2018-01-30T06:14:59.408Z,1.80
2018-01-30T06:17:27.690Z,1.57
2018-01-30T06:19:55.948Z,1.60
2018-01-30T06:22:24.304Z,1.17
2018-01-30T06:24:52.729Z,1.97
2018-01-30T06:27:20.989Z,2.00
2018-01-30T06:29:49.258Z,2.03
2018-01-30T06:32:17.547Z,2.40
2018-01-30T06:34:45.079Z,2.27
2018-01-30T06:37:12.596Z,1.33
2018-01-30T06:39:40.876Z,2.03
2018-01-30T06:42:09.120Z,1.60
2018-01-30T06:44:36.616Z,1.97
2018-01-30T06:47:04.957Z,1.70
2018-01-30T06:49:33.444Z,1.80
2018-01-30T06:52:00.967Z,1.40
2018-01-30T06:54:29.272Z,1.60
2018-01-30T06:56:56.780Z,2.03
2018-01-30T06:59:24.314Z,1.70
2018-01-30T07:01:51.813Z,1.73
2018-01-30T07:04:19.313Z,2.57
2018-01-30T07:06:46.815Z,1.33
2018-01-30T07:09:14.314Z,1.67
2018-01-30T07:11:42.591Z,1.73
2018-01-30T07:14:10.869Z,1.70
2018-01-30T07:16:39.213Z,3.73
2018-01-30T07:19:06.815Z,1.70
2018-01-30T07:21:34.306Z,1.30
2018-01-30T07:24:01.828Z,1.67
2018-01-30T07:26:29.325Z,2.67
2018-01-30T07:28:57.577Z,1.80
2018-01-30T07:31:25.073Z,1.43
2018-01-30T07:33:53.369Z,1.80
2018-01-30T07:36:20.995Z,3.60
2018-01-30T07:38:48.501Z,1.93
2018-01-30T07:41:15.996Z,1.63
2018-01-30T07:43:43.496Z,1.47
2018-01-30T07:46:11.875Z,4.13
2018-01-30T07:48:39.320Z,2.00
2018-01-30T07:51:06.799Z,2.03
2018-01-30T07:53:35.086Z,3.60
2018-01-30T07:56:03.376Z,1.77
2018-01-30T07:58:30.889Z,2.30
2018-01-30T08:00:58.369Z,1.90
2018-01-30T08:03:25.890Z,1.80
2018-01-30T08:05:53.385Z,2.50
2018-01-30T08:08:20.968Z,1.23
2018-01-30T08:10:48.485Z,2.77
2018-01-30T08:13:16.036Z,1.80
2018-01-30T08:15:43.531Z,1.50
2018-01-30T08:18:13.199Z,2.20
2018-01-30T08:20:40.734Z,1.70
2018-01-30T08:23:08.439Z,2.23
2018-01-30T08:25:35.959Z,1.40
2018-01-30T08:28:04.429Z,2.20
2018-01-30T08:30:31.956Z,1.87
2018-01-30T08:32:59.456Z,1.70
2018-01-30T08:35:26.967Z,2.27
2018-01-30T08:37:54.525Z,1.63
2018-01-30T08:40:22.853Z,2.40
2018-01-30T08:42:50.356Z,2.93
2018-01-30T08:45:18.641Z,2.90
2018-01-30T08:47:46.920Z,2.53
2018-01-30T08:50:15.235Z,1.57
2018-01-30T08:52:42.760Z,2.00
2018-01-30T08:55:10.244Z,2.37
2018-01-30T08:57:37.766Z,2.80
2018-01-30T09:00:05.291Z,2.77
2018-01-30T09:02:32.795Z,2.37
2018-01-30T09:05:01.824Z,1.60
2018-01-30T09:07:30.093Z,1.40
2018-01-30T09:09:58.371Z,2.83
2018-01-30T09:12:26.645Z,1.43
2018-01-30T09:14:54.157Z,1.73
2018-01-30T09:17:21.644Z,3.83
2018-01-30T09:19:49.154Z,1.80
2018-01-30T09:22:17.426Z,2.60
2018-01-30T09:24:44.934Z,4.13
2018-01-30T09:27:12.457Z,2.07
2018-01-30T09:29:40.756Z,2.20
2018-01-30T09:32:09.039Z,1.80
2018-01-30T09:34:36.587Z,2.33
2018-01-30T09:37:04.209Z,2.23
2018-01-30T09:39:31.741Z,1.73
2018-01-30T09:41:59.267Z,2.63
2018-01-30T09:44:26.859Z,1.40
2018-01-30T09:46:54.362Z,3.03
2018-01-30T09:49:21.913Z,1.67
2018-01-30T09:51:49.402Z,1.93
2018-01-30T09:54:16.890Z,2.20
2018-01-30T09:56:44.498Z,2.87
2018-01-30T09:59:12.029Z,2.30
2018-01-30T10:01:40.324Z,2.43
2018-01-30T10:04:08.572Z,2.17
2018-01-30T10:06:36.116Z,2.60
2018-01-30T10:09:03.629Z,2.30
2018-01-30T10:11:31.147Z,2.30
2018-01-30T10:13:58.686Z,1.50
2018-01-30T10:16:26.186Z,1.97
2018-01-30T10:18:53.667Z,2.33
2018-01-30T10:21:21.944Z,2.10
2018-01-30T10:23:50.206Z,1.90
2018-01-30T10:26:17.735Z,2.40
2018-01-30T10:28:45.334Z,1.80
2018-01-30T10:31:12.865Z,2.73
2018-01-30T10:33:40.340Z,2.03
2018-01-30T10:36:08.785Z,2.60
2018-01-30T10:38:36.276Z,1.90
2018-01-30T10:41:03.806Z,2.70
2018-01-30T10:43:32.083Z,1.93
2018-01-30T10:46:00.364Z,2.03
2018-01-30T10:48:27.869Z,1.60
2018-01-30T10:50:55.392Z,2.40
2018-01-30T10:53:23.671Z,1.90
2018-01-30T10:55:51.969Z,2.73
2018-01-30T10:58:19.480Z,1.70
2018-01-30T11:00:46.981Z,2.80
2018-01-30T11:03:14.491Z,2.07
2018-01-30T11:05:41.986Z,2.17
2018-01-30T11:08:10.279Z,2.20
2018-01-30T11:10:38.680Z,2.50
2018-01-30T11:13:06.165Z,1.73
2018-01-30T11:15:33.688Z,2.30
2018-01-30T11:18:01.972Z,1.93
2018-01-30T11:20:30.270Z,2.17
2018-01-30T11:22:57.780Z,1.60
2018-01-30T11:25:26.174Z,2.90
2018-01-30T11:27:53.740Z,2.87
2018-01-30T11:30:21.293Z,2.40
2018-01-30T11:32:48.811Z,3.00
2018-01-30T11:35:16.322Z,2.10
2018-01-30T11:37:43.846Z,2.53
2018-01-30T11:40:11.336Z,2.10
2018-01-30T11:42:38.824Z,1.83
2018-01-30T11:45:06.344Z,2.23
2018-01-30T11:47:33.847Z,2.33
2018-01-30T11:50:01.344Z,1.50
2018-01-30T11:52:28.878Z,2.40
2018-01-30T11:54:56.376Z,2.47
2018-01-30T11:57:23.897Z,1.73
2018-01-30T11:59:51.384Z,2.10
2018-01-30T12:02:19.661Z,2.80
2018-01-30T12:04:47.916Z,1.43
2018-01-30T12:07:15.443Z,2.03
2018-01-30T12:09:42.949Z,2.80
2018-01-30T12:12:11.235Z,1.77
2018-01-30T12:14:38.732Z,2.10
2018-01-30T12:17:06.250Z,2.63
2018-01-30T12:19:33.761Z,2.90
2018-01-30T12:22:01.258Z,2.77
2018-01-30T12:24:28.740Z,2.60
2018-01-30T12:26:56.250Z,2.43
2018-01-30T12:29:23.790Z,2.10
2018-01-30T12:31:52.047Z,3.20
2018-01-30T12:34:19.940Z,1.80
2018-01-30T12:36:47.443Z,2.10
2018-01-30T12:39:14.941Z,1.90
2018-01-30T12:41:42.485Z,2.80
2018-01-30T12:44:09.995Z,1.53
2018-01-30T12:46:38.297Z,2.97
2018-01-30T12:49:05.795Z,2.47
2018-01-30T12:51:33.290Z,2.00
2018-01-30T12:54:00.803Z,1.80
2018-01-30T12:56:29.044Z,1.87
2018-01-30T12:58:56.557Z,2.13
2018-01-30T13:01:24.056Z,1.90
2018-01-30T13:03:51.544Z,1.77
2018-01-30T13:06:19.857Z,2.63
2018-01-30T13:08:47.456Z,1.50
2018-01-30T13:11:14.944Z,2.17
2018-01-30T13:13:43.216Z,2.27
2018-01-30T13:16:11.843Z,2.57
2018-01-30T13:18:39.346Z,1.50
2018-01-30T13:21:06.847Z,2.17
2018-01-30T13:23:34.373Z,2.00
2018-01-30T13:26:01.878Z,2.30
2018-01-30T13:28:30.138Z,2.00
2018-01-30T13:30:57.625Z,1.70
2018-01-30T13:33:25.928Z,2.20
2018-01-30T13:35:53.439Z,2.43
2018-01-30T13:38:20.949Z,1.87
2018-01-30T13:40:48.482Z,2.67
2018-01-30T13:43:16.755Z,2.37
2018-01-30T13:45:44.272Z,2.70
2018-01-30T13:48:11.812Z,2.10
2018-01-30T13:50:39.298Z,2.30
2018-01-30T13:53:06.827Z,2.27
2018-01-30T13:55:35.102Z,3.00
2018-01-30T13:58:03.382Z,1.90
2018-01-30T14:00:31.640Z,1.60
2018-01-30T14:02:59.152Z,1.70
2018-01-30T14:05:26.685Z,1.70
2018-01-30T14:07:54.928Z,2.17
2018-01-30T14:10:22.436Z,2.70
2018-01-30T14:12:51.680Z,2.23
2018-01-30T14:15:19.207Z,1.60
2018-01-30T14:17:46.723Z,1.97
2018-01-30T14:20:14.268Z,1.93
2018-01-30T14:22:41.776Z,1.80
2018-01-30T14:25:10.090Z,2.20
2018-01-30T14:27:37.581Z,5.60
2018-01-30T14:30:05.088Z,2.00
2018-01-30T14:32:32.594Z,2.10
2018-01-30T14:35:00.104Z,1.63
2018-01-30T14:37:27.612Z,1.80
2018-01-30T14:39:55.230Z,2.40
2018-01-30T14:42:22.765Z,2.13
2018-01-30T14:44:50.487Z,1.60
2018-01-30T14:47:18.775Z,1.40
2018-01-30T14:49:46.293Z,3.27
2018-01-30T14:52:13.826Z,2.40
2018-01-30T14:54:42.303Z,1.67
2018-01-30T14:57:09.822Z,2.20
2018-01-30T14:59:37.412Z,2.23
2018-01-30T15:02:05.669Z,2.50
2018-01-30T15:04:33.172Z,2.90
2018-01-30T15:07:00.673Z,1.70
2018-01-30T15:09:28.167Z,1.43
2018-01-30T15:11:55.659Z,1.47
2018-01-30T15:14:23.144Z,2.30
2018-01-30T15:16:50.671Z,1.80
2018-01-30T15:19:18.998Z,1.80
2018-01-30T15:21:46.505Z,1.17
2018-01-30T15:24:14.820Z,2.00
2018-01-30T15:26:42.300Z,2.20
2018-01-30T15:29:09.777Z,1.83
2018-01-30T15:31:37.269Z,2.17
2018-01-30T15:34:05.593Z,1.50
2018-01-30T15:36:33.109Z,1.47
2018-01-30T15:39:00.654Z,1.83
2018-01-30T15:41:28.120Z,2.50
2018-01-30T15:43:55.605Z,1.70
2018-01-30T15:46:23.875Z,1.93
2018-01-30T15:48:51.400Z,1.67
2018-01-30T15:51:18.897Z,2.30
2018-01-30T15:53:46.377Z,1.77
2018-01-30T15:56:14.650Z,2.23
2018-01-30T15:58:42.128Z,2.70
2018-01-30T16:01:10.405Z,1.90
2018-01-30T16:03:39.481Z,2.40
2018-01-30T16:06:07.010Z,2.20
2018-01-30T16:08:34.493Z,2.00
2018-01-30T16:11:02.001Z,2.77
2018-01-30T16:13:30.257Z,2.07
2018-01-30T16:15:57.787Z,2.13
2018-01-30T16:18:25.284Z,1.93
2018-01-30T16:20:53.662Z,1.73
2018-01-30T16:23:21.615Z,2.40
2018-01-30T16:25:49.127Z,1.80
2018-01-30T16:28:17.408Z,2.67
2018-01-30T16:30:45.714Z,1.83
2018-01-30T16:33:13.209Z,1.87
2018-01-30T16:35:40.729Z,1.60
2018-01-30T16:38:08.246Z,2.83
2018-01-30T16:40:37.914Z,2.00
2018-01-30T16:43:05.454Z,2.03
2018-01-30T16:45:33.834Z,2.67
2018-01-30T16:48:02.100Z,2.47
2018-01-30T16:50:30.403Z,2.87
2018-01-30T16:52:58.685Z,2.37
2018-01-30T16:55:26.176Z,2.40
2018-01-30T16:57:53.676Z,2.20
2018-01-30T17:00:21.234Z,3.27
2018-01-30T17:02:48.795Z,4.30
2018-01-30T17:05:16.281Z,2.60
2018-01-30T17:07:43.864Z,2.53
2018-01-30T17:10:12.133Z,2.83
2018-01-30T17:12:40.367Z,2.63
2018-01-30T17:15:07.887Z,2.80
2018-01-30T17:17:36.161Z,3.10
2018-01-30T17:20:04.448Z,2.30
2018-01-30T17:22:33.500Z,2.80
2018-01-30T17:25:01.034Z,2.40
2018-01-30T17:27:29.388Z,3.33
2018-01-30T17:29:56.905Z,2.83
2018-01-30T17:32:24.409Z,3.27
2018-01-30T17:34:52.668Z,3.27
2018-01-30T17:37:20.174Z,2.70
2018-01-30T17:39:47.762Z,2.20
2018-01-30T17:42:15.288Z,2.57
2018-01-30T17:44:43.543Z,2.90
2018-01-30T17:47:11.067Z,3.10
2018-01-30T17:49:38.662Z,3.53
2018-01-30T17:52:06.164Z,2.80
2018-01-30T17:54:33.725Z,3.63
2018-01-30T17:57:02.028Z,2.97
2018-01-30T17:59:29.534Z,3.30
2018-01-30T18:01:57.052Z,3.70
2018-01-30T18:04:24.618Z,3.33
2018-01-30T18:06:52.240Z,2.57
2018-01-30T18:09:19.753Z,3.00
2018-01-30T18:11:47.377Z,3.50
2018-01-30T18:14:14.917Z,3.33
2018-01-30T18:16:42.473Z,4.67
2018-01-30T18:19:10.037Z,4.00
2018-01-30T18:21:37.562Z,3.90
2018-01-30T18:24:05.074Z,4.10
2018-01-30T18:26:32.602Z,3.90
2018-01-30T18:29:00.098Z,6.70
2018-01-30T18:31:27.601Z,4.03
2018-01-30T18:33:55.881Z,4.30
2018-01-30T18:36:24.182Z,4.53
2018-01-30T18:38:51.746Z,4.40
2018-01-30T18:41:19.293Z,4.87
2018-01-30T18:43:47.571Z,5.43
2018-01-30T18:46:15.886Z,4.50
2018-01-30T18:48:43.429Z,5.10
2018-01-30T18:51:10.926Z,4.00
2018-01-30T18:53:38.570Z,5.20
2018-01-30T18:56:06.137Z,3.90
2018-01-30T18:58:33.673Z,3.13
2018-01-30T19:01:01.289Z,3.97
2018-01-30T19:03:28.826Z,3.57
2018-01-30T19:05:56.423Z,3.80
2018-01-30T19:08:24.061Z,3.90
2018-01-30T19:10:51.720Z,3.97
2018-01-30T19:13:19.854Z,4.90
2018-01-30T19:15:49.487Z,4.20
2018-01-30T19:18:17.118Z,4.75
2018-01-30T19:20:44.639Z,2.83
2018-01-30T19:23:12.143Z,3.83
2018-01-30T19:25:39.691Z,4.50
2018-01-30T19:28:07.216Z,3.60
2018-01-30T19:30:34.797Z,3.78
2018-01-30T19:33:02.467Z,4.77
2018-01-30T19:35:29.996Z,3.40
2018-01-30T19:37:58.341Z,5.37
2018-01-30T19:40:25.895Z,4.50
2018-01-30T19:42:53.456Z,3.90
2018-01-30T19:45:20.966Z,5.80
2018-01-30T19:47:48.508Z,4.20
2018-01-30T19:50:16.038Z,3.83
2018-01-30T19:52:43.558Z,4.43
2018-01-30T19:55:11.835Z,4.27
2018-01-30T19:57:40.131Z,3.90
2018-01-30T20:00:09.334Z,4.60
2018-01-30T20:02:37.626Z,4.70
2018-01-30T20:05:05.178Z,4.15
2018-01-30T20:07:33.535Z,4.00
2018-01-30T20:10:01.118Z,3.60
2018-01-30T20:12:29.646Z,3.77
2018-01-30T20:14:57.942Z,3.37
2018-01-30T20:17:31.201Z,3.93
2018-01-30T20:19:58.797Z,4.77
2018-01-30T20:22:26.282Z,5.03
2018-01-30T20:24:53.897Z,3.83
2018-01-30T20:27:21.452Z,3.43
2018-01-30T20:29:49.001Z,4.35
2018-01-30T20:32:17.273Z,3.93
2018-01-30T20:34:44.796Z,4.47
2018-01-30T20:37:18.020Z,3.73
2018-01-30T20:39:45.566Z,3.95
2018-01-30T20:42:13.205Z,4.15
2018-01-30T20:44:41.450Z,4.07
2018-01-30T20:47:09.813Z,3.90
2018-01-30T20:49:37.359Z,3.40
2018-01-30T20:52:04.873Z,5.00
2018-01-30T20:54:32.444Z,4.47
2018-01-30T20:56:59.993Z,3.70
2018-01-30T20:59:28.305Z,3.67
2018-01-30T21:01:55.809Z,4.97
2018-01-30T21:04:24.086Z,4.00
2018-01-30T21:06:51.619Z,4.90
2018-01-30T21:09:20.384Z,4.15
2018-01-30T21:11:47.896Z,4.63
2018-01-30T21:14:15.425Z,4.87
2018-01-30T21:16:42.927Z,5.15
2018-01-30T21:19:10.429Z,4.80
2018-01-30T21:21:37.984Z,4.25
2018-01-30T21:24:06.270Z,4.70
2018-01-30T21:26:34.521Z,4.40
2018-01-30T21:29:02.022Z,4.72
2018-01-30T21:31:29.614Z,4.07
2018-01-30T21:33:57.223Z,4.00
2018-01-30T21:36:24.757Z,3.60
2018-01-30T21:38:52.342Z,4.03
2018-01-30T21:41:19.893Z,4.28
2018-01-30T21:43:47.381Z,4.18
2018-01-30T21:46:15.730Z,4.75
2018-01-30T21:48:43.290Z,4.65
2018-01-30T21:51:10.954Z,3.85
2018-01-30T21:53:38.562Z,4.53
2018-01-30T21:56:06.193Z,4.18
2018-01-30T21:58:33.712Z,4.35
2018-01-30T22:01:02.107Z,5.87
2018-01-30T22:03:30.346Z,4.30
2018-01-30T22:05:57.883Z,4.80
2018-01-30T22:08:25.405Z,3.83
2018-01-30T22:10:53.754Z,3.85
2018-01-30T22:13:21.309Z,5.20
2018-01-30T22:15:48.851Z,4.93
2018-01-30T22:18:16.362Z,6.10
2018-01-30T22:20:44.682Z,5.70
2018-01-30T22:23:12.188Z,4.60
2018-01-30T22:25:39.684Z,4.70
2018-01-30T22:28:07.958Z,5.30
2018-01-30T22:30:36.317Z,5.45
2018-01-30T22:33:03.977Z,4.30
2018-01-30T22:35:31.480Z,3.97
2018-01-30T22:37:58.980Z,3.67
2018-01-30T22:40:26.541Z,4.05
2018-01-30T22:42:54.064Z,4.53
2018-01-30T22:45:22.374Z,4.72
